createdAt,value
2024-03-16T00:00:52.953Z,37.98
2024-03-16T00:03:20.848Z,37.99
2024-03-16T00:05:48.446Z,38.10
2024-03-16T00:08:15.967Z,38.15
2024-03-16T00:10:44.635Z,38.13
2024-03-16T00:13:12.192Z,37.99
2024-03-16T00:15:39.922Z,38.07
2024-03-16T00:18:07.662Z,38.14
2024-03-16T00:20:36.548Z,38.19
2024-03-16T00:23:04.350Z,38.36
2024-03-16T00:25:32.708Z,38.30
2024-03-16T00:28:01.329Z,38.37
2024-03-16T00:30:29.194Z,38.56
2024-03-16T00:32:57.248Z,38.81
2024-03-16T00:35:25.961Z,38.91
2024-03-16T00:45:30.119Z,39.77
2024-03-16T00:47:58.153Z,39.99
2024-03-16T00:50:25.733Z,40.22
2024-03-16T00:52:53.348Z,40.31
2024-03-16T00:55:20.971Z,40.49
2024-03-16T01:05:33.710Z,40.58
2024-03-16T01:08:01.306Z,40.63
2024-03-16T01:10:28.965Z,40.58
2024-03-16T01:12:56.454Z,40.48
2024-03-16T01:15:24.216Z,40.49
2024-03-16T01:17:52.102Z,40.24
2024-03-16T01:20:19.786Z,40.04
2024-03-16T01:22:47.466Z,39.97
2024-03-16T01:25:15.208Z,39.92
2024-03-16T01:27:42.843Z,40.00
2024-03-16T01:30:10.890Z,39.76
2024-03-16T01:32:38.426Z,39.85
2024-03-16T01:35:07.843Z,39.97
2024-03-16T01:37:35.481Z,40.21
2024-03-16T01:40:03.633Z,40.17
2024-03-16T01:42:31.458Z,40.13
2024-03-16T01:45:12.209Z,40.30
2024-03-16T01:47:39.783Z,40.24
2024-03-16T01:50:09.408Z,40.11
2024-03-16T01:52:37.106Z,40.06
2024-03-16T01:55:05.532Z,39.93
2024-03-16T01:57:33.190Z,39.78
2024-03-16T02:00:02.673Z,39.63
2024-03-16T02:02:38.528Z,39.38
2024-03-16T02:05:06.806Z,39.41
2024-03-16T02:07:34.497Z,39.37
2024-03-16T02:10:04.513Z,39.28
2024-03-16T02:12:35.272Z,39.26
2024-03-16T02:15:03.549Z,39.23
2024-03-16T02:17:31.072Z,39.13
2024-03-16T02:19:58.612Z,39.19
2024-03-16T02:22:26.045Z,39.03
2024-03-16T02:24:53.869Z,38.99
2024-03-16T02:27:21.771Z,38.96
2024-03-16T02:29:49.611Z,39.02
2024-03-16T02:32:17.063Z,38.99
2024-03-16T02:34:45.243Z,38.97
2024-03-16T02:37:12.843Z,39.18
2024-03-16T02:39:40.564Z,39.12
2024-03-16T02:42:08.111Z,39.33
2024-03-16T02:44:35.633Z,39.33
2024-03-16T02:47:03.131Z,39.21
2024-03-16T02:49:31.323Z,39.24
2024-03-16T02:51:58.854Z,39.18
2024-03-16T02:54:26.423Z,39.21
2024-03-16T02:56:54.070Z,39.31
2024-03-16T02:59:21.692Z,39.29
2024-03-16T03:01:49.589Z,39.36
2024-03-16T03:04:17.114Z,39.31
2024-03-16T03:06:44.693Z,39.40
2024-03-16T03:09:12.221Z,39.38
2024-03-16T03:11:39.878Z,39.38
2024-03-16T03:14:07.876Z,39.42
2024-03-16T03:16:35.484Z,39.17
2024-03-16T03:19:03.064Z,39.15
2024-03-16T03:21:30.874Z,39.30
2024-03-16T03:24:00.679Z,39.16
2024-03-16T03:26:30.448Z,39.41
2024-03-16T03:28:58.497Z,39.57
2024-03-16T03:31:26.194Z,39.71
2024-03-16T03:33:53.797Z,39.75
2024-03-16T03:36:21.370Z,39.73
2024-03-16T03:38:49.158Z,39.63
2024-03-16T03:41:16.711Z,40.00
2024-03-16T03:43:48.363Z,40.31
2024-03-16T03:46:41.272Z,40.45
2024-03-16T03:49:12.841Z,40.28
2024-03-16T03:51:40.629Z,40.15
2024-03-16T03:54:08.093Z,40.13
2024-03-16T03:56:35.756Z,40.19
2024-03-16T03:59:03.399Z,39.98
2024-03-16T04:01:31.048Z,40.06
2024-03-16T04:03:59.373Z,40.42
2024-03-16T04:06:27.145Z,40.63
2024-03-16T04:08:54.765Z,40.67
2024-03-16T04:11:22.332Z,40.56
2024-03-16T04:13:49.996Z,40.40
2024-03-16T04:16:17.586Z,40.17
2024-03-16T04:18:45.190Z,40.27
2024-03-16T04:21:13.674Z,40.18
2024-03-16T04:23:41.435Z,40.14
2024-03-16T04:26:08.981Z,40.09
2024-03-16T04:28:36.949Z,40.06
2024-03-16T04:31:04.499Z,39.82
2024-03-16T04:33:32.155Z,39.67
2024-03-16T04:36:00.253Z,39.65
2024-03-16T04:38:27.890Z,39.98
2024-03-16T04:40:55.455Z,39.99
2024-03-16T04:43:23.291Z,40.09
2024-03-16T04:45:50.869Z,40.10
2024-03-16T04:48:18.433Z,39.82
2024-03-16T04:50:48.876Z,39.77
2024-03-16T04:53:16.802Z,39.81
2024-03-16T04:55:44.402Z,39.93
2024-03-16T04:58:12.117Z,39.87
2024-03-16T05:00:39.779Z,39.92
2024-03-16T05:03:07.928Z,39.82
2024-03-16T05:05:35.787Z,39.77
2024-03-16T05:08:03.493Z,39.79
2024-03-16T05:10:31.915Z,39.67
2024-03-16T05:12:59.511Z,39.59
2024-03-16T05:15:27.473Z,39.39
2024-03-16T05:17:55.084Z,39.32
2024-03-16T05:20:22.723Z,39.30
2024-03-16T05:22:50.294Z,39.34
2024-03-16T05:25:17.925Z,39.23
2024-03-16T05:27:45.564Z,39.03
2024-03-16T05:30:13.041Z,38.96
2024-03-16T05:32:40.826Z,38.97
2024-03-16T05:35:09.962Z,38.80
2024-03-16T05:37:38.177Z,38.65
2024-03-16T05:40:05.986Z,38.69
2024-03-16T05:42:35.896Z,38.58
2024-03-16T05:45:04.659Z,38.55
2024-03-16T05:47:32.332Z,38.58
2024-03-16T05:50:00.884Z,38.56
2024-03-16T05:52:28.401Z,38.51
2024-03-16T05:54:56.100Z,38.54
2024-03-16T05:57:23.637Z,38.35
2024-03-16T05:59:51.142Z,38.27
2024-03-16T06:02:18.738Z,38.19
2024-03-16T06:04:46.260Z,38.08
2024-03-16T06:07:13.887Z,38.09
2024-03-16T06:09:43.068Z,38.11
2024-03-16T06:12:11.636Z,38.01
2024-03-16T06:14:39.249Z,37.99
2024-03-16T06:17:06.871Z,37.96
2024-03-16T06:19:34.579Z,37.93
2024-03-16T06:22:03.928Z,37.89
2024-03-16T06:24:32.390Z,37.73
2024-03-16T06:27:06.943Z,37.66
2024-03-16T06:29:34.764Z,37.60
2024-03-16T06:32:08.174Z,37.49
2024-03-16T06:34:35.749Z,37.42
2024-03-16T06:37:04.480Z,37.32
2024-03-16T06:39:32.378Z,37.24
2024-03-16T06:42:00.042Z,37.13
2024-03-16T06:44:27.638Z,37.00
2024-03-16T06:46:55.198Z,37.05
2024-03-16T06:49:22.784Z,37.03
2024-03-16T06:51:50.369Z,37.08
2024-03-16T06:54:18.096Z,36.87
2024-03-16T06:56:45.703Z,36.73
2024-03-16T06:59:13.279Z,36.64
2024-03-16T07:01:40.857Z,36.62
2024-03-16T07:04:08.679Z,36.72
2024-03-16T07:06:36.453Z,36.62
2024-03-16T07:09:09.425Z,36.52
2024-03-16T07:11:37.231Z,36.81
2024-03-16T07:14:05.001Z,37.16
2024-03-16T07:16:32.599Z,37.28
2024-03-16T07:19:00.473Z,37.12
2024-03-16T07:21:29.724Z,36.82
2024-03-16T07:23:57.766Z,36.64
2024-03-16T07:26:25.466Z,36.62
2024-03-16T07:28:53.186Z,36.80
2024-03-16T07:31:20.890Z,36.58
2024-03-16T07:33:48.690Z,36.15
2024-03-16T07:36:16.413Z,35.90
2024-03-16T07:38:44.131Z,35.59
2024-03-16T07:41:12.021Z,35.17
2024-03-16T07:43:41.406Z,35.18
2024-03-16T07:46:09.145Z,35.20
2024-03-16T07:48:36.977Z,34.94
2024-03-16T07:51:05.721Z,34.87
2024-03-16T07:53:33.507Z,34.60
2024-03-16T07:56:01.259Z,34.42
2024-03-16T07:58:28.985Z,34.27
2024-03-16T08:00:57.029Z,34.24
2024-03-16T08:03:25.949Z,34.30
2024-03-16T08:05:55.533Z,34.49
2024-03-16T08:08:25.719Z,34.33
2024-03-16T08:10:55.897Z,34.08
2024-03-16T08:13:26.403Z,34.06
2024-03-16T08:15:57.325Z,33.96
2024-03-16T08:18:28.282Z,33.79
2024-03-16T08:20:59.293Z,33.70
2024-03-16T08:23:30.568Z,33.73
2024-03-16T08:26:00.658Z,33.45
2024-03-16T08:28:31.639Z,33.41
2024-03-16T08:31:02.320Z,33.57
2024-03-16T08:33:32.894Z,33.41
2024-03-16T08:36:06.884Z,33.36
2024-03-16T08:38:38.366Z,33.16
2024-03-16T08:41:09.309Z,33.31
2024-03-16T08:43:39.400Z,33.28
2024-03-16T08:46:11.434Z,33.33
2024-03-16T08:48:41.294Z,33.32
2024-03-16T08:51:11.312Z,33.35
2024-03-16T08:53:41.277Z,33.43
2024-03-16T08:56:12.394Z,33.38
2024-03-16T08:58:45.416Z,33.29
2024-03-16T09:01:18.086Z,33.19
2024-03-16T09:11:41.642Z,33.15
2024-03-16T09:14:09.008Z,33.08
2024-03-16T09:16:36.983Z,33.24
2024-03-16T09:19:04.064Z,33.20
2024-03-16T09:21:47.497Z,33.23
2024-03-16T09:24:23.221Z,33.10
2024-03-16T09:26:53.127Z,33.16
2024-03-16T09:29:21.097Z,33.18
2024-03-16T09:31:48.254Z,33.16
2024-03-16T09:34:15.236Z,32.99
2024-03-16T09:36:42.362Z,33.10
2024-03-16T09:39:11.351Z,33.11
2024-03-16T09:41:40.955Z,33.22
2024-03-16T09:44:12.604Z,33.30
2024-03-16T09:46:43.020Z,33.30
2024-03-16T09:49:14.120Z,33.11
2024-03-16T09:51:41.451Z,33.04
2024-03-16T09:54:10.025Z,33.16
2024-03-16T09:56:37.636Z,33.19
2024-03-16T09:59:25.158Z,33.13
2024-03-16T10:01:59.682Z,33.22
2024-03-16T10:04:28.328Z,33.17
2024-03-16T10:06:56.667Z,32.98
2024-03-16T10:09:24.142Z,32.97
2024-03-16T10:11:51.320Z,33.01
2024-03-16T10:14:18.776Z,33.11
2024-03-16T10:16:45.782Z,32.88
2024-03-16T10:19:14.840Z,33.02
2024-03-16T10:21:42.324Z,32.96
2024-03-16T10:24:09.444Z,32.97
2024-03-16T10:26:36.364Z,32.84
2024-03-16T10:29:07.975Z,32.94
2024-03-16T10:31:34.945Z,32.92
2024-03-16T10:34:02.197Z,32.68
2024-03-16T10:36:29.898Z,32.60
2024-03-16T10:38:57.154Z,32.75
2024-03-16T10:41:25.803Z,32.71
2024-03-16T10:43:53.818Z,32.61
2024-03-16T10:46:21.573Z,32.75
2024-03-16T10:48:48.625Z,32.65
2024-03-16T10:51:16.478Z,32.42
2024-03-16T10:53:43.552Z,32.38
2024-03-16T10:56:10.900Z,32.27
2024-03-16T10:58:38.019Z,32.25
2024-03-16T11:03:44.105Z,34.01
2024-03-16T11:06:22.051Z,32.65
2024-03-16T11:08:51.265Z,32.27
2024-03-16T11:11:22.322Z,32.25
2024-03-16T11:13:59.812Z,32.15
2024-03-16T11:16:28.601Z,32.05
2024-03-16T11:18:57.482Z,32.06
2024-03-16T11:21:34.375Z,32.15
2024-03-16T11:24:18.244Z,31.92
2024-03-16T11:26:53.171Z,31.90
2024-03-16T11:29:32.089Z,31.87
2024-03-16T11:32:02.194Z,31.89
2024-03-16T11:34:29.699Z,31.93
2024-03-16T11:36:57.992Z,32.08
2024-03-16T11:39:26.443Z,32.13
2024-03-16T11:41:59.809Z,32.02
2024-03-16T11:44:27.529Z,32.00
2024-03-16T11:46:55.033Z,31.95
2024-03-16T11:49:22.876Z,32.14
2024-03-16T11:51:50.469Z,31.93
2024-03-16T11:54:18.266Z,32.05
2024-03-16T11:56:45.902Z,32.01
2024-03-16T11:59:15.391Z,31.87
2024-03-16T12:01:47.984Z,31.83
2024-03-16T12:04:16.501Z,31.70
2024-03-16T12:06:44.033Z,31.83
2024-03-16T12:09:16.622Z,31.62
2024-03-16T12:11:50.317Z,31.58
2024-03-16T12:14:25.560Z,31.68
2024-03-16T12:16:59.056Z,31.66
2024-03-16T12:19:26.727Z,31.71
2024-03-16T12:21:55.504Z,31.64
2024-03-16T12:24:23.062Z,31.50
2024-03-16T12:26:51.106Z,31.48
2024-03-16T12:29:19.753Z,31.28
2024-03-16T12:31:49.217Z,31.05
2024-03-16T12:34:16.777Z,31.01
2024-03-16T12:36:44.214Z,31.08
2024-03-16T12:39:12.601Z,30.93
2024-03-16T12:41:44.764Z,30.94
2024-03-16T12:44:12.293Z,31.03
2024-03-16T12:46:39.779Z,31.16
2024-03-16T12:49:07.262Z,31.04
2024-03-16T12:51:36.917Z,31.28
2024-03-16T12:54:05.091Z,31.22
2024-03-16T12:56:38.064Z,31.11
2024-03-16T12:59:05.617Z,31.22
2024-03-16T13:01:33.811Z,31.33
2024-03-16T13:04:01.374Z,31.28
2024-03-16T13:06:28.877Z,31.44
2024-03-16T13:08:57.062Z,31.35
2024-03-16T13:11:26.409Z,31.48
2024-03-16T13:13:53.906Z,31.77
2024-03-16T13:16:22.946Z,31.83
2024-03-16T13:18:53.101Z,31.78
2024-03-16T13:21:23.065Z,31.81
2024-03-16T13:24:04.206Z,31.85
2024-03-16T13:26:35.020Z,31.94
2024-03-16T13:29:03.536Z,31.92
2024-03-16T13:31:32.182Z,31.77
2024-03-16T13:34:00.129Z,31.94
2024-03-16T13:36:30.013Z,31.86
2024-03-16T13:38:57.558Z,31.96
2024-03-16T13:41:26.001Z,32.00
2024-03-16T13:43:55.603Z,32.08
2024-03-16T13:46:23.102Z,31.93
2024-03-16T13:48:58.097Z,31.86
2024-03-16T13:51:30.503Z,32.05
2024-03-16T13:53:58.212Z,32.11
2024-03-16T13:56:25.724Z,32.33
2024-03-16T13:58:53.666Z,32.16
2024-03-16T14:01:25.326Z,32.20
2024-03-16T14:03:53.007Z,32.07
2024-03-16T14:06:20.692Z,32.03
2024-03-16T14:08:48.199Z,32.10
2024-03-16T14:11:16.185Z,32.39
2024-03-16T14:13:44.520Z,32.24
2024-03-16T14:16:14.420Z,32.29
2024-03-16T14:18:42.168Z,32.33
2024-03-16T14:21:09.925Z,32.39
2024-03-16T14:23:37.869Z,32.63
2024-03-16T14:26:05.434Z,32.44
2024-03-16T14:28:33.113Z,32.64
2024-03-16T14:31:02.275Z,32.50
2024-03-16T14:33:29.762Z,32.38
2024-03-16T14:35:57.293Z,32.59
2024-03-16T14:38:25.875Z,32.71
2024-03-16T14:40:55.662Z,32.85
2024-03-16T14:43:23.332Z,32.91
2024-03-16T14:45:51.080Z,33.05
2024-03-16T14:48:18.545Z,33.10
2024-03-16T14:50:46.053Z,33.05
2024-03-16T14:53:13.574Z,33.21
2024-03-16T14:55:41.183Z,33.27
2024-03-16T14:58:08.758Z,33.48
2024-03-16T15:00:36.853Z,33.53
2024-03-16T15:03:05.871Z,33.93
2024-03-16T15:05:33.451Z,34.01
2024-03-16T15:08:01.023Z,34.10
2024-03-16T15:10:28.523Z,33.97
2024-03-16T15:12:56.060Z,34.09
2024-03-16T15:15:23.572Z,33.99
2024-03-16T15:17:51.077Z,34.10
2024-03-16T15:20:18.824Z,34.36
2024-03-16T15:22:46.333Z,34.28
2024-03-16T15:25:21.280Z,34.28
2024-03-16T15:27:54.636Z,34.33
2024-03-16T15:30:25.070Z,34.24
2024-03-16T15:32:53.293Z,34.31
2024-03-16T15:35:20.896Z,34.28
2024-03-16T15:37:48.410Z,34.32
2024-03-16T15:40:16.015Z,34.37
2024-03-16T15:42:44.316Z,34.44
2024-03-16T15:45:13.436Z,34.32
2024-03-16T15:47:41.003Z,34.40
2024-03-16T15:50:08.558Z,34.33
2024-03-16T15:52:36.209Z,34.30
2024-03-16T15:55:04.015Z,34.29
2024-03-16T15:57:34.301Z,34.33
2024-03-16T16:00:05.621Z,34.27
2024-03-16T16:02:34.883Z,34.30
2024-03-16T16:07:31.061Z,34.28
2024-03-16T16:09:58.681Z,34.34
2024-03-16T16:12:27.043Z,34.50
2024-03-16T16:24:15.467Z,34.47
2024-03-16T16:26:48.278Z,34.55
2024-03-16T16:29:16.433Z,34.54
2024-03-16T16:31:44.515Z,34.51
2024-03-16T16:34:13.107Z,34.63
2024-03-16T16:36:41.285Z,34.70
2024-03-16T16:39:09.747Z,34.54
2024-03-16T16:41:38.133Z,34.62
2024-03-16T16:44:07.062Z,34.66
2024-03-16T16:46:35.108Z,34.72
2024-03-16T16:49:04.687Z,34.71
2024-03-16T16:56:17.014Z,34.72
2024-03-16T16:58:45.243Z,34.71
2024-03-16T17:01:13.253Z,34.78
2024-03-16T17:03:43.493Z,34.93
2024-03-16T17:06:11.958Z,35.01
2024-03-16T17:08:48.187Z,35.03
2024-03-16T17:11:35.224Z,35.26
2024-03-16T17:14:39.663Z,35.69
2024-03-16T17:17:20.896Z,36.12
2024-03-16T17:19:53.978Z,36.15
2024-03-16T17:27:16.062Z,35.90
2024-03-16T17:29:49.091Z,35.81
2024-03-16T17:32:18.983Z,35.81
2024-03-16T17:34:48.589Z,35.73
2024-03-16T17:37:17.257Z,35.61
2024-03-16T17:39:48.696Z,35.58
2024-03-16T17:42:17.576Z,35.50
2024-03-16T17:44:47.980Z,35.41
2024-03-16T17:47:16.329Z,35.37
2024-03-16T17:49:45.036Z,35.30
2024-03-16T17:52:13.280Z,35.20
2024-03-16T17:54:42.261Z,35.20
2024-03-16T17:57:11.348Z,35.24
2024-03-16T17:59:39.462Z,35.25
2024-03-16T18:02:08.182Z,35.16
2024-03-16T18:04:41.639Z,35.28
2024-03-16T18:07:18.246Z,35.44
2024-03-16T18:10:04.616Z,35.59
2024-03-16T18:12:53.730Z,35.64
2024-03-16T18:15:41.386Z,35.58
2024-03-16T18:18:20.781Z,35.48
2024-03-16T18:21:20.912Z,35.38
2024-03-16T18:23:58.815Z,35.21
2024-03-16T18:26:30.696Z,35.03
2024-03-16T18:29:01.269Z,34.91
2024-03-16T18:31:31.489Z,34.87
2024-03-16T18:34:02.082Z,34.80
2024-03-16T18:36:32.576Z,34.72
2024-03-16T18:39:03.024Z,34.80
2024-03-16T18:41:35.806Z,34.77
2024-03-16T18:44:09.415Z,34.83
2024-03-16T18:46:40.756Z,34.94
2024-03-16T18:49:29.885Z,34.96
2024-03-16T18:52:04.938Z,35.04
2024-03-16T18:54:47.056Z,35.00
2024-03-16T18:59:13.357Z,35.06
2024-03-16T19:01:50.560Z,35.18
2024-03-16T19:12:07.796Z,35.35
2024-03-16T19:14:44.155Z,35.31
2024-03-16T19:17:14.445Z,35.37
2024-03-16T19:19:50.530Z,35.21
2024-03-16T19:22:28.731Z,35.28
2024-03-16T19:25:03.058Z,35.28
2024-03-16T19:27:43.830Z,35.31
2024-03-16T19:30:17.068Z,35.34
2024-03-16T19:32:51.146Z,35.42
2024-03-16T19:35:32.472Z,35.46
2024-03-16T19:38:00.193Z,35.56
2024-03-16T19:40:31.473Z,35.56
2024-03-16T19:43:00.365Z,35.60
2024-03-16T19:45:29.628Z,35.62
2024-03-16T19:47:57.865Z,35.62
2024-03-16T19:50:27.109Z,35.54
2024-03-16T19:52:58.654Z,35.56
2024-03-16T19:55:30.297Z,35.55
2024-03-16T19:57:59.342Z,35.59
2024-03-16T20:00:28.009Z,35.58
2024-03-16T20:03:03.555Z,35.64
2024-03-16T20:05:31.638Z,35.65
2024-03-16T20:07:59.662Z,35.63
2024-03-16T20:10:28.770Z,35.69
2024-03-16T20:13:00.865Z,35.64
2024-03-16T20:15:29.423Z,35.75
2024-03-16T20:17:57.580Z,35.69
2024-03-16T20:20:35.606Z,35.82
2024-03-16T20:23:06.316Z,35.82
2024-03-16T20:25:35.560Z,35.75
2024-03-16T20:28:08.410Z,35.63
2024-03-16T20:30:36.196Z,35.66
2024-03-16T20:37:52.861Z,35.54
2024-03-16T20:45:12.588Z,35.69
2024-03-16T20:47:45.206Z,35.83
2024-03-16T20:50:28.480Z,35.88
2024-03-16T20:53:06.097Z,35.88
2024-03-16T20:55:43.410Z,35.96
2024-03-16T20:58:18.201Z,35.92
2024-03-16T21:00:55.082Z,35.89
2024-03-16T21:03:36.268Z,35.93
2024-03-16T21:06:37.565Z,35.98
2024-03-16T21:09:15.561Z,35.94
2024-03-16T21:11:44.235Z,35.89
2024-03-16T21:14:12.350Z,35.78
2024-03-16T21:16:39.998Z,35.84
2024-03-16T21:19:08.002Z,35.83
2024-03-16T21:26:34.073Z,35.91
2024-03-16T21:29:11.456Z,35.91
2024-03-16T21:31:53.054Z,35.93
2024-03-16T21:34:31.937Z,35.95
2024-03-16T21:37:18.584Z,35.81
2024-03-16T21:39:46.837Z,35.88
2024-03-16T21:42:27.035Z,35.94
2024-03-16T21:44:59.942Z,35.93
2024-03-16T21:47:28.106Z,36.23
2024-03-16T21:49:55.670Z,36.68
2024-03-16T21:57:07.217Z,35.86
2024-03-16T21:59:34.746Z,35.78
2024-03-16T22:02:02.548Z,35.73
2024-03-16T22:04:30.434Z,35.74
2024-03-16T22:06:58.976Z,35.70
2024-03-16T22:09:26.628Z,35.71
2024-03-16T22:11:54.324Z,35.72
2024-03-16T22:14:21.874Z,35.71
2024-03-16T22:16:49.405Z,35.85
2024-03-16T22:19:17.060Z,35.83
2024-03-16T22:21:44.510Z,35.93
2024-03-16T22:24:13.222Z,35.99
2024-03-16T22:26:41.104Z,35.99
2024-03-16T22:29:08.878Z,36.04
2024-03-16T22:31:36.386Z,35.90
2024-03-16T22:34:03.880Z,35.99
2024-03-16T22:36:32.891Z,35.97
2024-03-16T22:39:00.759Z,36.02
2024-03-16T22:41:30.444Z,35.89
2024-03-16T22:43:58.422Z,35.97
2024-03-16T22:46:25.920Z,35.97
2024-03-16T22:48:55.641Z,36.00
2024-03-16T22:51:23.428Z,36.06
2024-03-16T22:53:51.044Z,36.13
2024-03-16T22:56:18.699Z,36.18
2024-03-16T22:58:47.347Z,36.11
2024-03-16T23:01:14.959Z,36.20
2024-03-16T23:03:42.636Z,36.22
2024-03-16T23:06:10.174Z,36.18
2024-03-16T23:08:37.663Z,36.31
2024-03-16T23:11:05.217Z,36.29
2024-03-16T23:13:34.813Z,36.28
2024-03-16T23:16:02.951Z,36.25
2024-03-16T23:21:37.620Z,38.71
2024-03-16T23:24:06.833Z,36.90
2024-03-16T23:26:35.517Z,36.76
2024-03-16T23:29:03.089Z,36.66
2024-03-16T23:31:30.719Z,36.73
2024-03-16T23:41:41.368Z,36.74
2024-03-16T23:44:08.820Z,36.84
2024-03-16T23:46:36.259Z,36.94
2024-03-16T23:49:04.355Z,36.88
2024-03-16T23:51:31.907Z,36.91
2024-03-16T23:53:59.436Z,36.97
2024-03-16T23:56:27.022Z,37.07
